Terminal Aerodrome Forecast
Issued by NWS

Home | Current Version | Previous Version | Graphics & Text | Print | Product List | Glossary On
Versions: 1 2 3 4 5 6 7 8 9 10 11 12 13 14 15 16 17 18
833
FTUS43 KMPX 120307 AAA
TAFAXN
TAF AMD
KAXN 120307Z 1203/1224 30009KT P6SM OVC035
     FM120900 33012KT P6SM SCT030 OVC050
     FM121500 33016G24KT P6SM SCT250
     FM122200 33013KT P6SM SKC=

USA.gov is the U.S. government's official web portal to all federal, state and local government web resources and services.